.
WxDataArchive / Data Records for 2007-11-12
2007-11-11 November 2007 2007-11-13

Data Records for Monday, 12 November 2007

Time	Temp	Chill	HIndex	Humid	Dewpt	 Wind 	HiWind	WindDir	Rain 	Barom 
-----	----	-----	------	-----	-----	------	------	-------	-----	----- 
00:00	50.8	50.8	50.8	80	44.9	2	5	248	0.00	30.004 
00:05	50.8	50.8	50.8	80	44.9	1	4	248	0.00	30.005 
00:10	50.8	50.8	50.8	81	45.2	1	5	248	0.00	30.005 
00:15	50.8	50.8	50.8	81	45.2	1	3	248	0.00	30.006 
00:20	50.8	50.8	50.8	81	45.2	1	4	248	0.00	30.003 
00:25	50.8	50.8	50.8	81	45.2	2	5	270	0.00	30.004 
00:30	50.8	50.8	50.8	81	45.2	2	7	248	0.00	30.005 
00:35	50.8	50.8	50.8	81	45.2	2	4	248	0.00	30.005 
00:40	50.8	50.8	50.8	81	45.2	2	6	248	0.00	30.004 
00:45	50.8	50.8	50.8	81	45.2	1	7	248	0.00	30.003 
00:50	51.0	51.0	51.0	81	45.4	1	6	248	0.00	30.002 
00:55	50.8	50.8	50.8	81	45.2	1	4	270	0.00	29.997 
01:00	50.8	50.8	50.8	82	45.5	1	5	248	0.00	29.990 
01:05	50.8	50.8	50.8	82	45.5	1	4	112	0.00	29.981 
01:10	50.8	50.8	50.8	82	45.5	2	6	270	0.00	29.988 
01:15	51.0	51.0	51.0	82	45.7	2	5	248	0.00	29.990 
01:20	51.0	51.0	51.0	82	45.7	2	7	270	0.00	29.989 
01:25	51.0	51.0	51.0	82	45.7	3	6	248	0.00	29.990 
01:30	51.1	51.1	51.1	82	45.8	2	6	248	0.00	29.988 
01:35	51.0	51.0	51.0	82	45.7	2	6	248	0.00	29.991 
01:40	51.0	51.0	51.0	83	46.0	2	5	248	0.00	29.989 
01:45	50.8	50.8	50.8	83	45.8	3	7	248	0.00	29.996 
01:50	50.8	50.8	50.8	83	45.8	3	9	248	0.00	29.999 
01:55	50.8	50.8	50.8	84	46.1	3	9	225	0.00	30.000 
02:00	50.8	50.8	50.8	84	46.1	2	6	248	0.00	30.001 
02:05	50.7	50.7	50.7	84	46.0	2	6	248	0.00	30.000 
02:10	50.7	50.7	50.7	84	46.0	1	6	248	0.00	30.001 
02:15	50.7	50.7	50.7	85	46.4	1	6	248	0.00	30.001 
02:20	50.8	50.8	50.8	85	46.5	1	4	248	0.00	30.003 
02:25	50.8	50.8	50.8	85	46.5	1	5	248	0.00	30.002 
02:30	51.0	51.0	51.0	85	46.7	1	5	248	0.00	30.003 
02:35	51.0	51.0	51.0	85	46.7	1	3	248	0.00	30.003 
02:40	51.1	51.1	51.1	85	46.7	1	4	248	0.00	30.002 
02:45	51.1	51.1	51.1	85	46.7	1	4	248	0.00	30.003 
02:50	51.1	51.1	51.1	85	46.7	1	3	248	0.00	30.002 
02:55	51.3	51.3	51.3	85	46.9	1	4	248	0.00	30.001 
03:00	51.3	51.3	51.3	85	46.9	0	2	248	0.00	30.000 
03:05	51.3	51.3	51.3	85	46.9	1	3	248	0.00	29.998 
03:10	51.3	51.3	51.3	85	46.9	1	3	248	0.00	29.998 
03:15	51.4	51.4	51.4	85	47.0	1	4	248	0.00	29.998 
03:20	51.4	51.4	51.4	85	47.0	1	4	248	0.00	29.999 
03:25	51.6	51.6	51.6	85	47.2	1	4	248	0.00	29.996 
03:30	51.6	51.6	51.6	85	47.2	1	3	225	0.00	29.995 
03:35	51.6	51.6	51.6	85	47.2	1	3	248	0.00	29.994 
03:40	51.7	51.7	51.7	85	47.3	1	4	248	0.00	29.991 
03:45	51.7	51.7	51.7	85	47.3	1	5	248	0.00	29.992 
03:50	51.7	51.7	51.7	85	47.3	1	5	248	0.00	29.988 
03:55	51.7	51.7	51.7	85	47.3	1	4	248	0.00	29.985 
04:00	51.7	51.7	51.7	85	47.3	2	5	270	0.00	29.983 
04:05	51.6	51.6	51.6	85	47.2	1	4	248	0.00	29.983 
04:10	51.7	51.7	51.7	85	47.3	2	5	248	0.00	29.984 
04:15	51.7	51.7	51.7	85	47.3	2	5	248	0.00	29.985 
04:20	51.7	51.7	51.7	85	47.3	2	5	248	0.00	29.984 
04:25	51.7	51.7	51.7	85	47.3	2	6	248	0.00	29.984 
04:30	51.9	51.9	51.9	84	47.2	3	7	248	0.00	29.984 
04:35	52.0	52.0	52.0	84	47.3	2	7	248	0.00	29.986 
04:40	52.0	52.0	52.0	84	47.3	2	5	248	0.00	29.985 
04:45	52.0	52.0	52.0	84	47.3	1	5	248	0.00	29.984 
04:50	52.0	52.0	52.0	84	47.3	1	3	248	0.00	29.985 
04:55	52.0	52.0	52.0	85	47.6	1	3	248	0.00	29.989 
05:00	52.0	52.0	52.0	85	47.6	1	5	248	0.00	29.990 
05:05	52.2	52.2	52.2	84	47.5	1	4	248	0.00	29.991 
05:10	52.2	52.2	52.2	85	47.8	1	4	225	0.00	29.994 
05:15	52.2	52.2	52.2	85	47.8	1	4	248	0.00	29.989 
05:20	52.2	52.2	52.2	84	47.5	2	6	248	0.00	29.988 
05:25	52.2	52.2	52.2	84	47.5	1	4	248	0.00	29.989 
05:30	52.2	52.2	52.2	85	47.8	2	6	248	0.00	29.985 
05:35	52.2	52.2	52.2	85	47.8	1	5	248	0.00	29.984 
05:40	52.2	52.2	52.2	85	47.8	1	5	248	0.00	29.987 
05:45	52.2	52.2	52.2	85	47.8	2	7	248	0.00	29.984 
05:50	52.2	52.2	52.2	85	47.8	1	5	248	0.00	29.985 
05:55	52.2	52.2	52.2	85	47.8	1	4	248	0.00	29.986 
06:00	52.3	52.3	52.3	85	47.9	2	6	248	0.00	29.991 
06:05	52.5	52.5	52.5	85	48.1	2	6	270	0.00	29.987 
06:10	52.6	52.6	52.6	85	48.2	2	7	248	0.00	29.988 
06:15	52.8	52.8	52.8	85	48.4	2	6	248	0.00	29.988 
06:20	52.9	52.9	52.9	85	48.5	2	9	248	0.00	29.991 
06:25	52.9	52.9	52.9	85	48.5	2	5	248	0.00	29.988 
06:30	52.8	52.8	52.8	85	48.4	1	5	225	0.00	29.990 
06:35	52.8	52.8	52.8	85	48.4	1	6	248	0.00	29.992 
06:40	52.9	52.9	52.9	86	48.8	2	11	248	0.00	29.990 
06:45	52.9	52.9	52.9	86	48.8	2	6	248	0.00	29.991 
06:50	52.9	52.9	52.9	86	48.8	2	7	248	0.00	29.992 
06:55	52.9	52.9	52.9	86	48.8	2	5	248	0.00	29.993 
07:00	52.9	52.9	52.9	86	48.8	2	6	248	0.00	29.994 
07:05	52.9	52.9	52.9	86	48.8	3	6	248	0.00	29.995 
07:10	52.9	52.9	52.9	86	48.8	2	5	248	0.00	29.992 
07:15	52.9	52.9	52.9	86	48.8	2	6	248	0.00	29.993 
07:20	52.9	52.9	52.9	86	48.8	3	7	248	0.00	29.996 
07:25	52.8	52.8	52.8	86	48.7	2	6	248	0.00	29.996 
07:30	52.9	52.9	52.9	86	48.8	3	6	248	0.00	29.997 
07:35	52.9	52.9	52.9	86	48.8	3	10	248	0.00	29.998 
07:40	52.9	52.9	52.9	86	48.8	2	6	248	0.00	29.998 
07:45	53.1	53.1	53.1	86	49.0	3	11	248	0.00	29.998 
07:50	53.1	53.1	53.1	86	49.0	3	7	248	0.00	29.999 
07:55	53.2	53.2	53.2	86	49.1	3	7	248	0.00	30.001 
08:00	53.3	53.3	53.3	86	49.2	3	7	248	0.00	30.003 
08:05	53.3	53.3	53.3	86	49.2	3	7	248	0.00	30.004 
08:10	53.5	53.5	53.5	86	49.4	3	7	248	0.00	30.000 
08:15	53.5	53.5	53.5	86	49.4	2	6	248	0.00	30.006 
08:20	53.6	53.6	53.6	85	49.2	3	7	248	0.00	30.006 
08:25	53.6	53.6	53.6	85	49.2	2	6	248	0.00	30.007 
08:30	53.8	53.8	53.8	85	49.4	3	6	248	0.00	30.008 
08:35	53.8	53.8	53.8	85	49.4	2	7	248	0.00	30.008 
08:40	53.9	53.9	53.9	85	49.5	2	10	248	0.00	30.006 
08:45	54.1	54.1	54.1	85	49.7	2	6	248	0.00	30.007 
08:50	54.1	54.1	54.1	85	49.7	2	5	248	0.00	30.007 
08:55	54.2	54.2	54.2	85	49.8	3	6	248	0.00	30.006 
09:00	54.2	54.2	54.2	84	49.5	3	9	248	0.00	30.007 
09:05	54.4	54.4	54.4	85	50.0	2	5	248	0.00	30.009 
09:10	54.7	54.7	54.7	84	50.0	3	9	270	0.00	30.006 
09:15	55.0	55.0	55.0	84	50.3	4	7	248	0.00	30.004 
09:20	55.3	55.3	55.3	84	50.5	2	5	248	0.00	30.004 
09:25	55.6	55.6	55.6	83	50.5	3	12	248	0.00	30.004 
09:30	55.9	55.9	55.9	82	50.5	4	11	248	0.00	30.005 
09:35	56.0	56.0	56.0	82	50.6	3	5	248	0.00	30.006 
09:40	56.3	56.3	56.3	82	50.9	3	7	248	0.00	30.005 
09:45	56.3	56.3	56.3	82	50.9	3	12	248	0.00	30.004 
09:50	56.3	56.3	56.3	82	50.9	2	11	248	0.00	30.001 
09:55	56.5	56.5	56.5	82	51.1	3	7	248	0.00	29.999 
10:00	56.6	56.6	56.6	82	51.2	4	8	248	0.00	29.997 
10:05	56.9	56.9	56.9	82	51.5	4	11	248	0.00	29.993 
10:10	57.0	57.0	57.0	81	51.2	4	11	248	0.00	29.992 
10:15	57.2	57.2	57.2	81	51.4	3	9	248	0.00	29.991 
10:20	57.5	57.5	57.5	81	51.7	3	7	248	0.00	29.990 
10:25	57.8	57.8	57.8	81	52.0	4	9	248	0.00	29.988 
10:30	58.0	58.0	58.0	80	51.9	4	10	248	0.00	29.988 
10:35	58.3	58.3	58.3	80	52.2	3	9	248	0.00	29.990 
10:40	58.4	58.4	58.4	80	52.3	4	11	248	0.00	29.991 
10:45	58.7	58.7	58.7	80	52.5	3	11	248	0.00	29.994 
10:50	58.9	58.9	58.9	79	52.4	4	10	248	0.00	29.997 
10:55	59.2	59.2	59.2	79	52.7	3	10	248	0.00	29.993 
11:00	59.6	59.6	59.6	79	53.1	3	7	248	0.00	29.991 
11:05	60.2	60.2	60.2	78	53.3	2	5	248	0.00	29.987 
11:10	60.7	60.7	60.7	77	53.4	3	12	248	0.00	29.986 
11:15	61.2	61.2	61.2	77	53.9	4	9	270	0.00	29.986 
11:20	61.6	61.6	61.6	77	54.3	4	11	248	0.00	29.985 
11:25	62.1	62.1	62.1	75	54.1	3	7	270	0.00	29.985 
11:30	62.4	62.4	62.4	74	54.0	4	8	248	0.00	29.985 
11:35	62.7	62.7	62.7	74	54.3	4	9	248	0.00	29.983 
11:40	63.2	63.2	63.2	74	54.8	2	4	248	0.00	29.982 
11:45	63.5	63.5	63.5	73	54.7	3	7	248	0.00	29.978 
11:50	63.7	63.7	63.7	73	54.9	3	9	248	0.00	29.975 
11:55	63.9	63.9	63.9	73	55.1	3	10	248	0.00	29.970 
12:00	64.0	64.0	64.0	72	54.8	5	11	270	0.00	29.969 
12:05	63.9	63.9	63.9	73	55.1	5	13	270	0.00	29.967 
12:10	64.2	64.2	64.2	73	55.4	3	13	248	0.00	29.966 
12:15	64.5	64.5	64.5	72	55.3	3	10	248	0.00	29.964 
12:20	64.2	64.2	64.2	71	54.6	3	7	248	0.00	29.963 
12:25	64.2	64.2	64.2	73	55.4	4	10	248	0.00	29.961 
12:30	64.3	64.3	64.3	73	55.5	2	6	248	0.00	29.955 
12:35	64.5	64.5	64.5	73	55.6	3	7	248	0.00	29.951 
12:40	64.7	64.7	64.7	72	55.5	2	7	248	0.00	29.949 
12:45	64.8	64.8	64.8	73	55.9	3	5	225	0.00	29.943 
12:50	65.2	65.2	65.2	71	55.6	3	8	225	0.00	29.940 
12:55	65.2	65.2	65.2	70	55.2	3	9	248	0.00	29.940 
13:00	65.2	65.2	65.2	71	55.6	3	6	248	0.00	29.942 
13:05	65.3	65.3	65.3	71	55.6	3	7	270	0.00	29.942 
13:10	65.3	65.3	65.3	71	55.6	3	7	248	0.00	29.941 
13:15	65.2	65.2	65.2	71	55.6	4	10	248	0.00	29.945 
13:20	64.8	64.8	64.8	72	55.6	4	10	248	0.00	29.942 
13:25	64.8	64.8	64.8	72	55.6	3	10	248	0.00	29.936 
13:30	65.0	65.0	65.0	72	55.7	2	7	270	0.00	29.935 
13:35	65.0	65.0	65.0	71	55.4	2	9	248	0.00	29.938 
13:40	65.0	65.0	65.0	72	55.7	2	5	248	0.00	29.936 
13:45	64.7	64.7	64.7	72	55.5	4	11	270	0.00	29.936 
13:50	64.3	64.3	64.3	73	55.5	3	7	248	0.00	29.936 
13:55	64.0	64.0	64.0	73	55.2	2	6	248	0.00	29.936 
14:00	64.0	64.0	64.0	74	55.5	2	7	248	0.00	29.935 
14:05	63.9	63.9	63.9	74	55.4	3	6	248	0.00	29.934 
14:10	63.9	63.9	63.9	74	55.4	2	6	248	0.00	29.928 
14:15	63.9	63.9	63.9	74	55.4	2	6	248	0.00	29.926 
14:20	64.0	64.0	64.0	75	55.9	2	6	248	0.00	29.924 
14:25	64.0	64.0	64.0	75	55.9	1	5	248	0.00	29.921 
14:30	64.2	64.2	64.2	74	55.7	2	5	248	0.00	29.923 
14:35	64.3	64.3	64.3	74	55.8	2	6	248	0.00	29.926 
14:40	64.2	64.2	64.2	74	55.7	2	11	248	0.00	29.922 
14:45	64.2	64.2	64.2	74	55.7	4	11	270	0.00	29.930 
14:50	64.0	64.0	64.0	74	55.5	2	10	248	0.00	29.929 
14:55	63.9	63.9	63.9	74	55.4	2	6	270	0.00	29.922 
15:00	64.0	64.0	64.0	74	55.5	2	6	248	0.00	29.919 
15:05	64.0	64.0	64.0	74	55.5	2	5	248	0.00	29.918 
15:10	64.0	64.0	64.0	74	55.5	2	5	248	0.00	29.918 
15:15	64.0	64.0	64.0	74	55.5	2	6	248	0.00	29.919 
15:20	63.9	63.9	63.9	75	55.8	2	4	248	0.00	29.922 
15:25	63.9	63.9	63.9	75	55.8	1	4	248	0.00	29.927 
15:30	63.7	63.7	63.7	76	56.0	1	3	248	0.00	29.931 
15:35	63.5	63.5	63.5	77	56.2	2	5	248	0.00	29.933 
15:40	63.5	63.5	63.5	77	56.2	2	5	248	0.00	29.933 
15:45	63.4	63.4	63.4	77	56.1	1	5	248	0.00	29.933 
15:50	63.4	63.4	63.4	77	56.1	2	4	248	0.00	29.933 
15:55	63.2	63.2	63.2	79	56.6	1	5	248	0.01	29.935 
16:00	62.4	62.4	62.4	83	57.2	2	6	248	0.01	29.935 
16:05	61.6	61.6	61.6	87	57.7	2	5	270	0.02	29.936 
16:10	61.0	61.0	61.0	89	57.7	2	4	248	0.02	29.942 
16:15	60.5	60.5	60.5	90	57.5	1	3	270	0.00	29.943 
16:20	60.2	60.2	60.2	91	57.6	2	4	315	0.02	29.942 
16:25	60.1	60.1	60.1	92	57.8	2	7	248	0.00	29.940 
16:30	59.9	59.9	59.9	93	57.9	3	5	248	0.00	29.937 
16:35	59.8	59.8	59.8	93	57.8	2	9	248	0.00	29.936 
16:40	59.8	59.8	59.8	93	57.8	0	2	248	0.00	29.936 
16:45	59.6	59.6	59.6	94	57.9	1	3	248	0.00	29.936 
16:50	59.6	59.6	59.6	94	57.9	1	5	248	0.00	29.935 
16:55	59.5	59.5	59.5	94	57.8	2	5	248	0.02	29.935 
17:00	59.5	59.5	59.5	94	57.8	1	5	248	0.01	29.934 
17:05	59.5	59.5	59.5	95	58.1	2	6	248	0.02	29.930 
17:10	59.3	59.3	59.3	95	57.9	1	4	248	0.01	29.923 
17:15	59.3	59.3	59.3	95	57.9	2	4	248	0.00	29.935 
17:20	59.3	59.3	59.3	95	57.9	2	5	248	0.01	29.938 
17:25	59.3	59.3	59.3	95	57.9	2	6	248	0.00	29.938 
17:30	59.3	59.3	59.3	95	57.9	3	6	248	0.00	29.939 
17:35	59.3	59.3	59.3	95	57.9	2	6	248	0.00	29.940 
17:40	59.3	59.3	59.3	95	57.9	2	6	248	0.00	29.940 
17:45	59.3	59.3	59.3	96	58.2	1	4	248	0.00	29.940 
17:50	59.2	59.2	59.2	96	58.1	2	5	248	0.00	29.941 
17:55	59.2	59.2	59.2	96	58.1	2	10	248	0.00	29.941 
18:00	59.2	59.2	59.2	96	58.1	1	3	248	0.00	29.941 
18:05	59.0	59.0	59.0	96	57.9	2	6	248	0.00	29.940 
18:10	59.0	59.0	59.0	96	57.9	2	4	248	0.00	29.946 
18:15	59.0	59.0	59.0	95	57.6	2	5	248	0.00	29.949 
18:20	58.9	58.9	58.9	95	57.5	2	6	248	0.00	29.950 
18:25	58.9	58.9	58.9	95	57.5	1	3	248	0.00	29.950 
18:30	58.7	58.7	58.7	95	57.3	1	3	248	0.00	29.951 
18:35	58.7	58.7	58.7	95	57.3	2	7	248	0.00	29.951 
18:40	58.6	58.6	58.6	95	57.2	1	4	248	0.01	29.951 
18:45	58.6	58.6	58.6	96	57.5	2	6	270	0.00	29.952 
18:50	58.6	58.6	58.6	96	57.5	2	5	248	0.00	29.952 
18:55	58.4	58.4	58.4	96	57.3	1	5	270	0.00	29.953 
19:00	58.4	58.4	58.4	96	57.3	2	6	248	0.01	29.952 
19:05	58.4	58.4	58.4	96	57.3	3	6	248	0.02	29.953 
19:10	58.3	58.3	58.3	96	57.2	3	5	248	0.04	29.953 
19:15	58.3	58.3	58.3	96	57.2	4	11	248	0.03	29.952 
19:20	58.3	58.3	58.3	96	57.2	2	5	248	0.01	29.952 
19:25	58.3	58.3	58.3	96	57.2	3	7	248	0.01	29.953 
19:30	58.3	58.3	58.3	96	57.2	1	4	248	0.00	29.954 
19:35	58.3	58.3	58.3	96	57.2	2	6	248	0.01	29.954 
19:40	58.3	58.3	58.3	96	57.2	2	7	248	0.01	29.954 
19:45	58.3	58.3	58.3	96	57.2	2	5	248	0.00	29.954 
19:50	58.3	58.3	58.3	96	57.2	1	4	270	0.01	29.955 
19:55	58.3	58.3	58.3	96	57.2	1	2	270	0.00	29.956 
20:00	58.1	58.1	58.1	96	57.0	1	3	270	0.01	29.960 
20:05	57.6	57.6	57.6	96	56.5	2	4	315	0.03	29.964 
20:10	56.5	56.5	56.5	96	55.4	2	6	338	0.03	29.968 
20:15	56.0	56.0	56.0	96	54.9	1	4	292	0.03	29.969 
20:20	55.9	55.9	55.9	96	54.8	1	3	292	0.01	29.970 
20:25	55.6	55.6	55.6	96	54.5	1	2	338	0.01	29.970 
20:30	55.3	55.3	55.3	96	54.2	1	4	338	0.01	29.969 
20:35	55.1	55.1	55.1	96	54.0	1	4	315	0.00	29.969 
20:40	54.7	54.7	54.7	96	53.6	1	3	315	0.00	29.971 
20:45	54.4	54.4	54.4	96	53.3	0	2	315	0.01	29.971 
20:50	54.2	54.2	54.2	96	53.1	0	2	315	0.00	29.971 
20:55	54.2	54.2	54.2	96	53.1	0	1	315	0.01	29.970 
21:00	54.1	54.1	54.1	96	53.0	0	1	315	0.00	29.972 
21:05	54.1	54.1	54.1	96	53.0	0	1	315	0.00	29.970 
21:10	54.1	54.1	54.1	96	53.0	0	1	315	0.01	29.970 
21:15	53.9	53.9	53.9	96	52.8	0	1	315	0.01	29.970 
21:20	53.5	53.5	53.5	96	52.4	1	4	315	0.00	29.971 
21:25	53.1	53.1	53.1	95	51.7	0	3	292	0.00	29.971 
21:30	53.2	53.2	53.2	96	52.1	0	1	292	0.00	29.971 
21:35	53.3	53.3	53.3	96	52.2	0	1	292	0.00	29.970 
21:40	53.1	53.1	53.1	96	52.0	0	2	315	0.00	29.970 
21:45	52.5	52.5	52.5	95	51.1	0	2	292	0.00	29.972 
21:50	51.7	51.7	51.7	93	49.7	1	3	292	0.00	29.974 
21:55	51.6	51.6	51.6	91	49.1	0	1	338	0.00	29.973 
22:00	51.4	51.4	51.4	90	48.6	0	3	0	0.00	29.974 
22:05	51.3	51.3	51.3	90	48.5	0	2	0	0.00	29.972 
22:10	51.1	51.1	51.1	90	48.3	0	1	0	0.00	29.972 
22:15	51.1	51.1	51.1	90	48.3	0	2	0	0.00	29.973 
22:20	51.0	51.0	51.0	89	47.9	0	1	0	0.00	29.973 
22:25	50.7	50.7	50.7	89	47.6	0	0	---	0.00	29.973 
22:30	50.7	50.7	50.7	87	47.0	0	1	0	0.00	29.972 
22:35	50.7	50.7	50.7	88	47.3	0	0	---	0.00	29.972 
22:40	50.4	50.4	50.4	88	47.0	0	0	---	0.00	29.972 
22:45	50.2	50.2	50.2	88	46.8	0	0	---	0.00	29.972 
22:50	49.9	49.9	49.9	88	46.5	0	0	---	0.00	29.973 
22:55	49.8	49.8	49.8	89	46.7	0	0	---	0.00	29.973 
23:00	49.6	49.6	49.6	88	46.2	0	0	---	0.00	29.972 
23:05	49.5	49.5	49.5	88	46.1	0	0	---	0.00	29.972 
23:10	49.5	49.5	49.5	87	45.8	0	0	---	0.00	29.974 
23:15	49.4	49.4	49.4	87	45.7	0	0	---	0.00	29.971 
23:20	49.4	49.4	49.4	87	45.7	0	0	---	0.00	29.976 
23:25	49.4	49.4	49.4	87	45.7	0	1	0	0.00	29.980 
23:30	49.4	49.4	49.4	88	46.0	0	0	---	0.00	29.978 
23:35	49.2	49.2	49.2	89	46.1	0	1	0	0.00	29.979 
23:40	49.1	49.1	49.1	87	45.4	0	1	0	0.00	29.971 
23:45	48.9	48.9	48.9	86	44.9	0	0	---	0.00	29.972 
23:50	48.8	48.8	48.8	85	44.5	0	0	---	0.00	29.978 
23:55	48.6	48.6	48.6	85	44.3	0	0	---	0.00	29.982 

CoCoRaHS
IN-AL-39
A2 Web Hosting
Creative Commons License
GoDaddy
Look for:

loaded 2017-10-16 18:33:17 • last modified 2010-11-18 10:43:29
Privacy PolicyDisclaimer
• wx.awcolley.com is powered by PmWiki v.2002016 •
• all content (unless otherwise noted) © 2017 A W Colley